Time;durP1;ratioP1;P1;durP2;ratioP2;P2;SDS_P1;SDS_P2;PMS_P1;PMS_P2;Temp;Humidity;BMP_temperature;BMP_pressure;BME280_temperature;BME280_humidity;BME280_pressure;Samples;Min_cycle;Max_cycle;Signal;HPM_P1;HPM_P2
2022/09/13 00:01:06;;;;;;;;;;;;;;;13.30;100.00;98096.88;1703774;83;24477;-87
2022/09/13 00:03:34;;;;;;;;;;;;;;;13.32;100.00;98097.56;1707035;81;20142;-87
2022/09/13 00:06:07;;;;;;;;;;;;;;;13.31;100.00;98091.47;1712401;82;20332;-87
2022/09/13 00:08:33;;;;;;;;;;;;;;;13.31;100.00;98095.92;1694408;83;21989;-87
2022/09/13 00:11:00;;;;;;;;;;;;;;;13.30;100.00;98093.78;1700334;84;20795;-87
2022/09/13 00:13:26;;;;;;;;;;;;;;;13.31;100.00;98091.98;1727743;81;24574;-87
2022/09/13 00:15:52;;;;;;;;;;;;;;;13.31;100.00;98086.73;1731990;81;20286;-87
2022/09/13 00:18:18;;;;;;;;;;;;;;;13.30;100.00;98090.31;1728670;81;20310;-87
2022/09/13 00:20:45;;;;;;;;;;;;;;;13.23;100.00;98083.44;1725894;81;22178;-87
2022/09/13 00:23:11;;;;;;;;;;;;;;;13.13;100.00;98079.94;1729705;81;25998;-87
2022/09/13 00:25:42;;;;;;;;;;;;;;;13.07;100.00;98083.53;1729910;81;24405;-88
2022/09/13 00:28:08;;;;;;;;;;;;;;;13.13;100.00;98080.42;1695090;83;20450;-87
2022/09/13 00:30:34;;;;;;;;;;;;;;;13.17;100.00;98081.33;1693396;84;25043;-87
2022/09/13 00:33:03;;;;;;;;;;;;;;;13.22;100.00;98083.56;1693483;84;21970;-87
2022/09/13 00:35:37;;;;;;;;;;;;;;;13.23;100.00;98079.97;1698448;83;26684;-87
2022/09/13 00:38:10;;;;;;;;;;;;;;;13.23;100.00;98070.77;1699561;84;24074;-87
2022/09/13 00:40:36;;;;;;;;;;;;;;;13.22;100.00;98073.88;1697266;84;20227;-87
2022/09/13 00:43:16;;;;;;;;;;;;;;;13.18;100.00;98072.49;1680889;83;25767;-87
2022/09/13 00:45:42;;;;;;;;;;;;;;;13.15;100.00;98070.59;1681060;84;22109;-87
2022/09/13 00:48:10;;;;;;;;;;;;;;;13.05;100.00;98071.83;1713859;82;21007;-87
2022/09/13 00:50:38;;;;;;;;;;;;;;;12.97;100.00;98074.30;1681197;84;24435;-87
2022/09/13 00:53:12;;;;;;;;;;;;;;;12.88;100.00;98069.33;1683642;83;20222;-87
2022/09/13 00:55:40;;;;;;;;;;;;;;;12.82;100.00;98068.53;1666045;84;24988;-87
2022/09/13 00:58:09;;;;;;;;;;;;;;;12.77;100.00;98077.77;1691738;83;37252;-87
2022/09/13 01:00:38;;;;;;;;;;;;;;;12.70;100.00;98072.22;1675731;84;26205;-87
2022/09/13 01:03:05;;;;;;;;;;;;;;;12.64;100.00;98074.05;1680769;84;24683;-87
2022/09/13 01:05:33;;;;;;;;;;;;;;;12.58;100.00;98068.83;1708859;82;20244;-87
2022/09/13 01:08:00;;;;;;;;;;;;;;;12.56;100.00;98072.53;1710985;83;25143;-87
2022/09/13 01:10:26;;;;;;;;;;;;;;;12.53;100.00;98073.63;1711186;82;21917;-87
2022/09/13 01:13:13;;;;;;;;;;;;;;;12.49;100.00;98070.08;1712816;83;26264;-87
2022/09/13 01:15:41;;;;;;;;;;;;;;;12.46;100.00;98071.16;1707271;82;25245;-87
2022/09/13 01:18:08;;;;;;;;;;;;;;;12.43;100.00;98064.03;1675865;84;20456;-87
2022/09/13 01:20:41;;;;;;;;;;;;;;;12.43;100.00;98069.28;1676662;85;25016;-87
2022/09/13 01:23:20;;;;;;;;;;;;;;;12.42;100.00;98068.92;1645691;86;21665;-87
2022/09/13 01:25:51;;;;;;;;;;;;;;;12.41;100.00;98060.21;1684139;84;26284;-87
2022/09/13 01:28:36;;;;;;;;;;;;;;;12.42;100.00;98057.95;1690392;83;25414;-87
2022/09/13 01:31:09;;;;;;;;;;;;;;;12.41;100.00;98056.75;1687248;84;20194;-87
2022/09/13 01:33:57;;;;;;;;;;;;;;;12.39;100.00;98055.56;1686865;83;24999;-87
2022/09/13 01:36:38;;;;;;;;;;;;;;;12.39;100.00;98050.78;1691721;83;21959;-88
2022/09/13 01:39:06;;;;;;;;;;;;;;;12.40;100.00;98049.36;1691589;83;26029;-88
2022/09/13 01:41:50;;;;;;;;;;;;;;;12.38;100.00;98047.84;1688463;83;24508;-88
2022/09/13 01:44:23;;;;;;;;;;;;;;;12.29;100.00;98040.70;1647133;85;20225;-88
2022/09/13 01:47:09;;;;;;;;;;;;;;;12.24;100.00;98044.19;1643672;87;24989;-88
2022/09/13 01:49:36;;;;;;;;;;;;;;;12.24;100.00;98042.88;1641771;86;22026;-87
2022/09/13 01:52:14;;;;;;;;;;;;;;;12.28;100.00;98045.13;1644591;85;26023;-87
2022/09/13 01:54:51;;;;;;;;;;;;;;;12.31;100.00;98042.73;1640723;87;24392;-87
2022/09/13 01:57:23;;;;;;;;;;;;;;;12.33;100.00;98036.89;1644636;85;20213;-87
2022/09/13 01:59:50;;;;;;;;;;;;;;;12.29;100.00;98032.36;1641885;85;25177;-87
2022/09/13 02:02:30;;;;;;;;;;;;;;;12.22;100.00;98036.44;1626864;87;22009;-88
2022/09/13 02:05:05;;;;;;;;;;;;;;;12.18;100.00;98034.20;1640934;85;26287;-87
2022/09/13 02:07:32;;;;;;;;;;;;;;;12.21;100.00;98038.73;1641144;87;24450;-87
2022/09/13 02:10:00;;;;;;;;;;;;;;;12.28;100.00;98035.94;1642590;86;20262;-88
2022/09/13 02:12:27;;;;;;;;;;;;;;;12.31;100.00;98026.52;1644351;86;25746;-87
2022/09/13 02:15:15;;;;;;;;;;;;;;;12.31;100.00;98024.38;1644598;85;22024;-87
2022/09/13 02:17:42;;;;;;;;;;;;;;;12.27;100.00;98019.03;1642582;86;25991;-87
2022/09/13 02:20:27;;;;;;;;;;;;;;;12.23;100.00;98018.44;1640821;87;24562;-87
2022/09/13 02:22:57;;;;;;;;;;;;;;;12.20;100.00;98016.55;1643092;87;20210;-87
2022/09/13 02:25:24;;;;;;;;;;;;;;;12.16;100.00;98012.06;1641643;86;24843;-87
2022/09/13 02:28:02;;;;;;;;;;;;;;;12.10;100.00;98008.15;1642649;86;21967;-87
2022/09/13 02:30:35;;;;;;;;;;;;;;;12.07;100.00;98003.61;1642325;85;25979;-87
2022/09/13 02:33:03;;;;;;;;;;;;;;;12.06;100.00;98004.09;1642903;85;24434;-87
2022/09/13 02:35:30;;;;;;;;;;;;;;;12.07;100.00;98003.14;1643846;85;20306;-87
2022/09/13 02:38:04;;;;;;;;;;;;;;;12.04;100.00;98007.34;1642317;85;25614;-87
2022/09/13 02:40:33;;;;;;;;;;;;;;;11.99;100.00;98001.64;1639920;85;22061;-87
2022/09/13 02:43:01;;;;;;;;;;;;;;;11.96;100.00;98000.56;1659194;84;26048;-88
2022/09/13 02:45:29;;;;;;;;;;;;;;;11.94;100.00;97996.42;1695042;84;24460;-87
2022/09/13 02:47:57;;;;;;;;;;;;;;;11.91;100.00;97998.80;1695323;83;20214;-87
2022/09/13 02:50:28;;;;;;;;;;;;;;;11.90;100.00;97995.83;1691678;84;25253;-87
2022/09/13 02:52:56;;;;;;;;;;;;;;;11.89;100.00;97992.04;1692487;84;22139;-87
2022/09/13 02:55:24;;;;;;;;;;;;;;;11.90;100.00;97997.14;1694667;83;26158;-86
2022/09/13 02:57:52;;;;;;;;;;;;;;;11.88;100.00;97991.68;1693589;84;24431;-87
2022/09/13 03:00:18;;;;;;;;;;;;;;;11.84;100.00;97994.20;1692121;84;20187;-86
2022/09/13 03:02:46;;;;;;;;;;;;;;;11.80;100.00;97993.61;1694457;84;24663;-88
2022/09/13 03:05:16;;;;;;;;;;;;;;;11.74;100.00;97989.70;1693476;84;22631;-88
2022/09/13 03:07:42;;;;;;;;;;;;;;;11.74;100.00;97985.77;1691571;84;26135;-87
2022/09/13 03:10:10;;;;;;;;;;;;;;;11.73;100.00;97988.50;1696469;84;20379;-87
2022/09/13 03:12:47;;;;;;;;;;;;;;;11.71;100.00;97989.09;1692694;84;20357;-87
2022/09/13 03:15:31;;;;;;;;;;;;;;;11.66;100.00;97994.72;1696850;84;25144;-87
2022/09/13 03:18:22;;;;;;;;;;;;;;;11.63;100.00;97986.25;1691406;83;21981;-87
2022/09/13 03:20:59;;;;;;;;;;;;;;;11.61;100.00;97989.49;1695799;84;26224;-87
2022/09/13 03:23:45;;;;;;;;;;;;;;;11.57;100.00;97988.05;1698364;84;24518;-88
2022/09/13 03:26:31;;;;;;;;;;;;;;;11.56;100.00;97988.56;1696541;84;20293;-88
2022/09/13 03:29:03;;;;;;;;;;;;;;;11.54;100.00;97986.53;1695639;84;25036;-86
2022/09/13 03:31:34;;;;;;;;;;;;;;;11.51;100.00;97982.83;1692929;84;22081;-86
2022/09/13 03:34:07;;;;;;;;;;;;;;;11.50;100.00;97979.88;1699933;84;26726;-87
2022/09/13 03:36:39;;;;;;;;;;;;;;;11.48;100.00;97976.54;1699962;83;24498;-87
2022/09/13 03:39:07;;;;;;;;;;;;;;;11.46;100.00;97969.74;1653459;84;20242;-87
2022/09/13 03:41:35;;;;;;;;;;;;;;;11.45;100.00;97975.48;1698622;84;25011;-87
2022/09/13 03:44:03;;;;;;;;;;;;;;;11.43;100.00;97970.00;1701304;83;22012;-88
2022/09/13 03:46:31;;;;;;;;;;;;;;;11.41;100.00;97974.52;1707264;82;26107;-87
2022/09/13 03:48:58;;;;;;;;;;;;;;;11.40;100.00;97970.27;1703497;83;24440;-87
2022/09/13 03:51:27;;;;;;;6.67;3.40;;;;;;;11.37;100.00;97972.64;1702536;83;20238;-87
2022/09/13 03:54:01;;;;;;;4.17;3.40;;;;;;;11.34;100.00;97968.97;1700455;83;28096;-87
2022/09/13 03:56:33;;;;;;;5.35;4.17;;;;;;;11.34;100.00;97963.73;1702491;83;28187;-87
2022/09/13 03:59:00;;;;;;;4.10;3.35;;;;;;;11.32;100.00;97963.01;1699153;83;28088;-87
2022/09/13 04:01:26;;;;;;;;;;;;;;;11.31;100.00;97961.34;1705765;82;24427;-87
2022/09/13 04:03:52;;;;;;;;;;;;;;;11.29;100.00;97959.34;1711035;83;20222;-87
2022/09/13 04:06:18;;;;;;;;;;;;;;;11.27;100.00;97959.45;1707470;83;20465;-87
2022/09/13 04:08:44;;;;;;;;;;;;;;;11.26;100.00;97960.41;1704968;83;20331;-87
2022/09/13 04:11:10;;;;;;;;;;;;;;;11.26;100.00;97956.47;1707865;83;26185;-87
2022/09/13 04:13:37;;;;;;;;;;;;;;;11.29;100.00;97953.59;1707081;83;20833;-87
2022/09/13 04:16:05;;;;;;;;;;;;;;;11.29;100.00;97956.22;1708955;83;20246;-87
2022/09/13 04:18:31;;;;;;;;;;;;;;;11.29;100.00;97955.41;1705635;83;25000;-87
2022/09/13 04:20:58;;;;;;;;;;;;;;;11.29;100.00;97953.59;1706686;83;20312;-88
2022/09/13 04:23:24;;;;;;;;;;;;;;;11.28;100.00;97958.98;1706131;83;26002;-87
2022/09/13 04:25:53;;;;;;;;;;;;;;;11.29;100.00;97964.08;1707479;83;25208;-87
2022/09/13 04:28:22;;;;;;;;;;;;;;;11.31;100.00;97962.17;1707829;83;20249;-87
2022/09/13 04:30:53;;;;;;;;;;;;;;;11.31;100.00;97953.48;1707576;83;25170;-87
2022/09/13 04:33:19;;;;;;;;;;;;;;;11.29;100.00;97960.65;1710305;83;21988;-88
2022/09/13 04:35:46;;;;;;;;;;;;;;;11.29;100.00;97963.27;1703268;83;26050;-87
2022/09/13 04:38:12;;;;;;;;;;;;;;;11.29;100.00;97960.65;1705991;83;24587;-87
2022/09/13 04:40:44;;;;;;;;;;;;;;;11.30;100.00;97961.81;1704876;83;20342;-87
2022/09/13 04:43:10;;;;;;;;;;;;;;;11.29;100.00;97963.27;1703679;83;24981;-87
2022/09/13 04:45:39;;;;;;;;;;;;;;;11.28;100.00;97959.81;1693390;84;20288;-87
2022/09/13 04:48:07;;;;;;;;;;;;;;;11.29;100.00;97964.08;1694218;84;25981;-87
2022/09/13 04:50:33;;;;;;;;;;;;;;;11.28;100.00;97961.13;1697345;84;24326;-88
2022/09/13 04:52:59;;;;;;;;;;;;;;;11.31;100.00;97963.48;1693394;84;20272;-87
2022/09/13 04:55:25;;;;;;;;;;;;;;;11.32;100.00;97961.70;1691910;84;25017;-87
2022/09/13 04:57:55;;;;;;;;;;;;;;;11.34;100.00;97965.04;1693171;84;21790;-87
2022/09/13 05:00:27;;;;;;;;;;;;;;;11.34;100.00;97959.80;1691074;84;26012;-87
2022/09/13 05:02:56;;;;;;;;;;;;;;;11.38;100.00;97965.61;1692680;83;24498;-87
2022/09/13 05:05:22;;;;;;;;;;;;;;;11.39;100.00;97965.50;1691665;84;20219;-87
2022/09/13 05:07:51;;;;;;;;;;;;;;;11.39;100.00;97962.05;1692030;84;25214;-87
2022/09/13 05:10:18;;;;;;;;;;;;;;;11.38;100.00;97958.59;1692662;84;21973;-88
2022/09/13 05:12:44;;;;;;;;;;;;;;;11.38;100.00;97958.59;1693759;84;25999;-87
2022/09/13 05:15:11;;;;;;;;;;;;;;;11.43;100.00;97958.22;1697871;84;24580;-87
2022/09/13 05:17:37;;;;;;;;;;;;;;;11.50;100.00;97962.02;1690615;84;20194;-87
2022/09/13 05:20:04;;;;;;;;;;;;;;;11.54;100.00;97956.87;1692913;84;20824;-88
2022/09/13 05:22:30;;;;;;;;;;;;;;;11.55;100.00;97960.69;1698299;84;21992;-87
2022/09/13 05:24:56;;;;;;;;;;;;;;;11.58;100.00;97954.34;1695223;84;20920;-87
2022/09/13 05:27:28;;;;;;;;;;;;;;;11.62;100.00;97951.81;1695845;84;20955;-88
2022/09/13 05:29:56;;;;;;;;;;;;;;;11.65;100.00;97954.20;1692643;84;20235;-87
2022/09/13 05:32:23;;;;;;;;;;;;;;;11.67;100.00;97948.38;1694358;84;20832;-87
2022/09/13 05:34:49;;;;;;;;;;;;;;;11.72;100.00;97948.82;1729156;82;22005;-87
2022/09/13 05:37:15;;;;;;;;;;;;;;;11.77;100.00;97951.09;1695638;84;20796;-87
2022/09/13 05:39:41;;;;;;;;;;;;;;;11.81;100.00;97948.09;1694472;84;24690;-87
2022/09/13 05:42:08;;;;;;;;;;;;;;;11.78;100.00;97938.34;1696142;84;20225;-87
2022/09/13 05:44:34;;;;;;;;;;;;;;;11.92;100.00;97951.97;1703548;83;25027;-87
2022/09/13 05:47:00;;;;;;;;;;;;;;;11.99;100.00;97958.37;1706150;83;20348;-87
2022/09/13 05:49:29;;;;;;;;;;;;;;;12.05;100.00;97953.94;1706533;83;21709;-86
2022/09/13 05:51:55;;;;;;;;;;;;;;;12.13;100.00;97950.65;1707712;83;24454;-87
2022/09/13 05:54:21;;;;;;;;;;;;;;;12.17;100.00;97959.92;1702772;83;20447;-87
2022/09/13 05:56:47;;;;;;;;;;;;;;;12.20;100.00;97957.53;1703339;83;20871;-87
2022/09/13 05:59:16;;;;;;;;;;;;;;;12.23;100.00;97959.88;1702942;83;20228;-87
2022/09/13 06:01:44;;;;;;;;;;;;;;;12.26;100.00;97957.85;1706968;82;26020;-87
2022/09/13 06:04:11;;;;;;;;;;;;;;;12.31;100.00;97962.71;1705321;83;24417;-87
2022/09/13 06:06:39;;;;;;;;;;;;;;;12.37;100.00;97971.38;1730223;82;20261;-87
2022/09/13 06:09:07;;;;;;;;;;;;;;;12.42;100.00;97971.34;1703994;83;25065;-87
2022/09/13 06:11:33;;;;;;;;;;;;;;;12.48;100.00;97971.30;1706103;82;22089;-88
2022/09/13 06:14:00;;;;;;;;;;;;;;;12.55;100.00;97971.11;1701053;83;20810;-88
2022/09/13 06:16:30;;;;;;;;;;;;;;;12.58;100.00;97965.62;1702495;83;24577;-88
2022/09/13 06:18:57;;;;;;;;;;;;;;;12.65;100.00;97973.33;1706816;83;20226;-88
2022/09/13 06:21:23;;;;;;;;;;;;;;;12.73;100.00;97973.97;1705520;83;24828;-88
2022/09/13 06:23:52;;;;;;;;;;;;;;;12.77;100.00;97978.81;1705156;83;22149;-88
2022/09/13 06:26:20;;;;;;;;;;;;;;;12.79;100.00;97975.59;1704696;83;26056;-88
2022/09/13 06:28:47;;;;;;;;;;;;;;;12.87;100.00;97974.94;1706956;83;25176;-87
2022/09/13 06:31:14;;;;;;;;;;;;;;;12.91;100.00;97968.45;1707751;83;20264;-88
2022/09/13 06:33:49;;;;;;;;;;;;;;;12.95;100.00;97975.09;1702039;83;25252;-87
2022/09/13 06:36:18;;;;;;;;;;;;;;;12.99;100.00;97969.43;1709515;83;22953;-88
2022/09/13 06:38:45;;;;;;;;;;;;;;;13.05;100.00;97965.92;1712638;82;26021;-87
2022/09/13 06:41:13;;;;;;;;;;;;;;;13.13;100.00;97963.50;1710061;83;25102;-88
2022/09/13 06:43:40;;;;;;;;;;;;;;;13.19;100.00;97966.42;1706143;83;20416;-87
2022/09/13 06:46:08;;;;;;;;;;;;;;;13.25;100.00;97960.64;1677824;84;24977;-87
2022/09/13 06:48:43;;;;;;;;;;;;;;;13.34;100.00;97958.50;1699020;82;22145;-88
2022/09/13 06:51:10;;;;;;;;;;;;;;;13.44;100.00;97957.19;1694228;84;25843;-87
2022/09/13 06:53:40;;;;;;;;;;;;;;;13.52;100.00;97953.89;1692647;84;24506;-87
2022/09/13 06:56:07;;;;;;;;;;;;;;;13.59;100.00;97952.35;1690050;84;20329;-88
2022/09/13 06:58:34;;;;;;;;;;;;;;;13.64;100.00;97948.34;1692601;84;25693;-87
2022/09/13 07:01:10;;;;;;;;;;;;;;;13.72;100.00;97952.44;1690183;84;22004;-87
2022/09/13 07:03:38;;;;;;;;;;;;;;;13.81;100.00;97950.28;1690299;84;26068;-87
2022/09/13 07:06:09;;;;;;;;;;;;;;;13.91;100.00;97948.16;1695032;83;24616;-87
2022/09/13 07:08:38;;;;;;;;;;;;;;;13.98;100.00;97946.61;1696640;84;20305;-87
2022/09/13 07:11:11;;;;;;;;;;;;;;;14.09;100.00;97940.70;1701053;84;25741;-86
2022/09/13 07:13:51;;;;;;;;;;;;;;;14.16;100.00;97945.76;1692499;84;22981;-87
2022/09/13 07:16:24;;;;;;;;;;;;;;;14.29;100.00;97945.95;1697253;84;26107;-86
2022/09/13 07:18:51;;;;;;;;;;;;;;;14.41;100.00;97942.19;1688462;84;24445;-86
2022/09/13 07:21:21;;;;;;;;;;;;;;;14.51;100.00;97939.86;1695962;84;20551;-87
2022/09/13 07:23:50;;;;;;;;;;;;;;;14.58;100.00;97939.64;1697886;82;25040;-89
2022/09/13 07:26:16;;;;;;;;;;;;;;;14.62;100.00;97945.44;1694754;84;21974;-87
2022/09/13 07:28:53;;;;;;;;;;;;;;;14.66;100.00;97945.52;1693601;84;25927;-87
2022/09/13 07:31:19;;;;;;;;;;;;;;;14.74;100.00;97949.56;1730200;82;24508;-88
2022/09/13 07:33:55;;;;;;;;;;;;;;;14.83;100.00;97950.52;1692899;84;20195;-87
2022/09/13 07:36:23;;;;;;;;;;;;;;;14.87;100.00;97950.06;1679325;83;25137;-88
2022/09/13 07:38:50;;;;;;;;;;;;;;;14.94;100.00;97951.16;1629824;87;22143;-87
2022/09/13 07:41:20;;;;;;;;;;;;;;;15.06;100.00;97949.13;1704560;83;26008;-87
2022/09/13 07:43:47;;;;;;;;;;;;;;;15.13;100.00;97955.48;1699468;83;24693;-87
2022/09/13 07:46:14;;;;;;;;;;;;;;;15.21;100.00;97948.16;1698740;83;20281;-87
2022/09/13 07:48:43;;;;;;;;;;;;;;;15.29;100.00;97950.87;1684357;83;25275;-88
2022/09/13 07:51:17;;;;;;;;;;;;;;;15.33;100.00;97943.83;1674749;84;21967;-87
2022/09/13 07:53:44;;;;;;;;;;;;;;;15.43;100.00;97947.75;1686987;84;26027;-87
2022/09/13 07:56:21;;;;;;;;;;;;;;;15.49;100.00;97947.16;1691524;84;24607;-88
2022/09/13 07:58:48;;;;;;;;;;;;;;;15.57;100.00;97942.46;1682195;84;20151;-87
2022/09/13 08:01:25;;;;;;;;;;;;;;;15.65;100.00;97935.47;1679354;84;60247;-87
2022/09/13 08:03:51;;;;;;;;;;;;;;;15.74;100.00;97937.19;1688612;84;22497;-88
2022/09/13 08:06:18;;;;;;;;;;;;;;;15.79;100.00;97942.01;1686897;84;26696;-88
2022/09/13 08:08:51;;;;;;;;;;;;;;;15.85;100.00;97942.23;1683756;83;25217;-88
2022/09/13 08:11:20;;;;;;;;;;;;;;;15.95;100.00;97941.31;1689978;84;20592;-88
2022/09/13 08:13:46;;;;;;;;;;;;;;;16.00;100.00;97935.91;1687544;84;25036;-87
2022/09/13 08:16:12;;;;;;;;;;;;;;;16.09;100.00;97938.14;1684952;84;22035;-87
2022/09/13 08:18:45;;;;;;;;;;;;;;;16.14;100.00;97935.87;1684852;84;26032;-87
2022/09/13 08:21:11;;;;;;;;;;;;;;;16.17;100.00;97936.37;1691379;84;24417;-87
2022/09/13 08:23:37;;;;;;;;;;;;;;;16.29;100.00;97936.47;1693919;84;20594;-87
2022/09/13 08:26:05;;;;;;;;;;;;;;;16.44;100.00;97935.89;1691623;84;20268;-87
2022/09/13 08:28:31;;;;;;;;;;;;;;;16.54;100.00;97936.11;1687763;83;22155;-87
2022/09/13 08:31:04;;;;;;;;;;;;;;;16.63;100.00;97934.39;1687555;84;26271;-87
2022/09/13 08:33:32;;;;;;;;;;;;;;;16.73;100.00;97933.30;1689567;83;25222;-87
2022/09/13 08:36:01;;;;;;;;;;;;;;;16.79;100.00;97934.47;1683642;84;20191;-87
2022/09/13 08:38:28;;;;;;;;;;;;;;;16.86;100.00;97937.28;1687682;84;25074;-87
2022/09/13 08:41:04;;;;;;;;;;;;;;;16.91;100.00;97932.38;1687502;84;21952;-87
2022/09/13 08:43:41;;;;;;;;;;;;;;;16.94;100.00;97931.56;1686557;84;26172;-87
2022/09/13 08:46:12;;;;;;;;;;;;;;;16.98;100.00;97921.48;1685234;84;24636;-87
2022/09/13 08:48:40;;;;;;;;;;;;;;;17.02;100.00;97928.94;1689906;83;20247;-87
2022/09/13 08:51:11;;;;;;;;;;;;;;;17.09;100.00;97918.55;1685710;83;24987;-87
2022/09/13 08:53:42;;;;;;;;;;;;;;;17.17;100.00;97919.08;1688757;84;22794;-87
2022/09/13 08:56:10;;;;;;;;;;;;;;;17.20;100.00;97918.75;1691438;84;26039;-87
2022/09/13 08:58:56;;;;;;;;;;;;;;;17.25;100.00;97910.66;1689532;83;25290;-87
2022/09/13 09:01:40;;;;;;;;;;;;;;;17.35;100.00;97912.66;1688973;84;20227;-87
2022/09/13 09:04:14;;;;;;;;;;;;;;;17.42;100.00;97902.27;1689833;84;24959;-87
2022/09/13 09:06:44;;;;;;;;;;;;;;;17.46;100.00;97910.20;1691899;83;22736;-87
2022/09/13 09:09:18;;;;;;;;;;;;;;;17.48;100.00;97906.91;1687836;84;26005;-87
2022/09/13 09:12:01;;;;;;;;;;;;;;;17.50;100.00;97911.06;1686569;84;25498;-87
2022/09/13 09:14:33;;;;;;;;;;;;;;;17.52;100.00;97906.91;1692317;84;20486;-88
2022/09/13 09:17:13;;;;;;;;;;;;;;;17.61;100.00;97901.18;1671083;84;24996;-87
2022/09/13 09:19:52;;;;;;;;;;;;;;;17.65;100.00;97895.39;1689452;84;22797;-87
2022/09/13 09:22:20;;;;;;;;;;;;;;;17.71;100.00;97897.38;1686704;84;26018;-87
2022/09/13 09:24:48;;;;;;;;;;;;;;;17.74;100.00;97890.42;1689680;84;24429;-87
2022/09/13 09:27:16;;;;;;;;;;;;;;;17.82;100.00;97893.58;1672574;84;20206;-87
2022/09/13 09:29:47;;;;;;;;;;;;;;;17.88;100.00;97891.10;1688256;83;25831;-87
2022/09/13 09:32:18;;;;;;;;;;;;;;;17.93;100.00;97882.66;1689288;84;21993;-87
2022/09/13 09:35:02;;;;;;;;;;;;;;;18.01;100.00;97883.13;1685569;83;26833;-87
2022/09/13 09:37:40;;;;;;;;;;;;;;;18.03;100.00;97883.80;1685688;84;25347;-87
2022/09/13 09:40:11;;;;;;;;;;;;;;;18.09;100.00;97876.52;1669998;84;20191;-88
2022/09/13 09:42:41;;;;;;;;;;;;;;;18.14;100.00;97878.16;1688996;83;25764;-88
2022/09/13 09:47:54;;;;;;;;;;;;;;;18.30;100.00;97867.03;1688638;84;26027;-87
2022/09/13 09:50:26;;;;;;;;;;;;;;;18.38;100.00;97871.50;1690033;84;24753;-87
2022/09/13 09:52:55;;;;;;;;;;;;;;;18.43;100.00;97867.83;1688050;84;20222;-87
2022/09/13 09:55:26;;;;;;;;;;;;;;;18.46;100.00;97870.12;1691917;82;25720;-87
2022/09/13 09:58:00;;;;;;;;;;;;;;;18.51;100.00;97869.12;1687562;83;22045;-87
2022/09/13 10:00:32;;;;;;;;;;;;;;;18.56;100.00;97858.03;1690694;84;26181;-88
2022/09/13 10:03:00;;;;;;;;;;;;;;;18.65;100.00;97861.00;1690834;83;25297;-88
2022/09/13 10:05:31;;;;;;;;;;;;;;;18.71;100.00;97859.79;1688834;84;20219;-88
2022/09/13 10:07:59;;;;;;;;;;;;;;;18.77;100.00;97864.41;1693701;83;25039;-87
2022/09/13 10:10:27;;;;;;;;;;;;;;;18.83;100.00;97862.06;1687944;84;22104;-87
2022/09/13 10:12:55;;;;;;;;;;;;;;;18.87;100.00;97864.22;1688217;84;26173;-87
2022/09/13 10:15:28;;;;;;;;;;;;;;;18.94;100.00;97863.00;1687711;84;24730;-87
2022/09/13 10:18:05;;;;;;;;;;;;;;;19.03;100.00;97863.30;1679406;84;20473;-88
2022/09/13 10:20:33;;;;;;;;;;;;;;;19.13;100.00;97853.30;1689962;84;25876;-87
2022/09/13 10:23:04;;;;;;;;;;;;;;;19.15;100.00;97853.93;1684612;84;22064;-87
2022/09/13 10:25:30;;;;;;;;;;;;;;;19.15;100.00;97849.95;1678184;84;25965;-87
2022/09/13 10:28:03;;;;;;;;;;;;;;;19.17;100.00;97844.81;1688125;84;24421;-88
2022/09/13 10:30:37;;;;;;;;;;;;;;;19.18;100.00;97840.34;1687827;83;20321;-88
2022/09/13 10:33:03;;;;;;;;;;;;;;;19.18;100.00;97846.97;1680041;84;24741;-87
2022/09/13 10:35:36;;;;;;;;;;;;;;;19.17;100.00;97847.46;1687733;84;22288;-87
2022/09/13 10:38:02;;;;;;;;;;;;;;;19.17;100.00;97850.11;1683825;84;26111;-87
2022/09/13 10:40:30;;;;;;;;;;;;;;;19.18;100.00;97848.30;1685421;84;24439;-87
2022/09/13 10:42:57;;;;;;;;;;;;;;;19.20;100.00;97850.28;1684377;84;20595;-87
2022/09/13 10:45:30;;;;;;;;;;;;;;;19.27;100.00;97837.11;1688597;84;25211;-88
2022/09/13 10:47:58;;;;;;;;;;;;;;;19.29;100.00;97839.93;1695453;83;22278;-87
2022/09/13 10:50:26;;;;;;;;;;;;;;;19.31;100.00;97837.11;1709141;83;26126;-87
2022/09/13 10:52:55;;;;;;;;;;;;;;;19.38;100.00;97828.24;1716424;82;24521;-87
2022/09/13 10:55:28;;;;;;;;;;;;;;;19.38;100.00;97820.28;1712728;82;20320;-87
2022/09/13 10:58:02;;;;;;;;;;;;;;;19.42;100.00;97819.45;1717755;82;24984;-87
2022/09/13 11:00:36;;;;;;;;;;;;;;;19.46;100.00;97814.13;1713623;83;22228;-87
2022/09/13 11:03:06;;;;;;;;;;;;;;;19.46;100.00;97809.66;1710853;83;26785;-87
2022/09/13 11:05:41;;;;;;;;;;;;;;;19.50;100.00;97809.61;1708897;82;23926;-87
2022/09/13 11:08:11;;;;;;;;;;;;;;;19.55;100.00;97801.11;1689787;82;20235;-87
2022/09/13 11:10:45;;;;;;;;;;;;;;;19.62;100.00;97810.02;1712845;83;25234;-87
2022/09/13 11:13:14;;;;;;;;;;;;;;;19.69;100.00;97806.15;1711517;82;22432;-87
2022/09/13 11:15:51;;;;;;;;;;;;;;;19.73;100.00;97806.10;1713350;82;26079;-87
2022/09/13 11:18:27;;;;;;;;;;;;;;;19.78;100.00;97807.22;1712318;83;24497;-87
2022/09/13 11:20:58;;;;;;;;;;;;;;;19.87;100.00;97809.28;1719389;83;20276;-87
2022/09/13 11:23:38;;;;;;;;;;;;;;;19.93;100.00;97808.56;1711293;82;25389;-87
2022/09/13 11:26:12;;;;;;;;;;;;;;;19.96;100.00;97808.22;1692076;83;20146;-87
2022/09/13 11:28:54;;;;;;;;;;;;;;;20.00;100.00;97814.80;1691745;83;26252;-87
2022/09/13 11:31:22;;;;;;;;;;;;;;;20.05;100.00;97805.78;1711473;83;24416;-86
2022/09/13 11:33:51;;;;;;;;;;;;;;;20.13;100.00;97793.73;1711793;82;20197;-86
2022/09/13 11:36:29;;;;;;;;;;;;;;;20.22;100.00;97794.48;1711169;83;20515;-86
2022/09/13 11:38:57;;;;;;;;;;;;;;;20.29;100.00;97786.11;1711826;82;21721;-86
2022/09/13 11:41:28;;;;;;;;;;;;;;;20.38;100.00;97787.67;1711578;83;26009;-86
2022/09/13 11:44:06;;;;;;;;;;;;;;;20.44;100.00;97782.45;1714151;82;24406;-86
2022/09/13 11:46:52;;;;;;;;;;;;;;;20.50;100.00;97770.76;1715275;82;20318;-86
2022/09/13 11:49:20;;;;;;;;;;;;;;;20.52;100.00;97763.41;1712040;82;24996;-87
2022/09/13 11:51:50;;;;;;;;;;;;;;;20.56;100.00;97750.91;1674421;84;22013;-86
2022/09/13 11:54:30;;;;;;;;;;;;;;;20.63;100.00;97755.77;1688329;82;26005;-87
2022/09/13 11:56:58;;;;;;;;;;;;;;;20.68;100.00;97752.05;1683468;83;24646;-86
2022/09/13 11:59:38;;;;;;;;;;;;;;;20.73;100.00;97742.20;1667057;84;20215;-86
2022/09/13 12:02:06;;;;;;;;;;;;;;;20.82;100.00;97741.06;1671164;85;24954;-86
2022/09/13 12:04:34;;;;;;;;;;;;;;;20.82;100.00;97735.75;1698661;84;21966;-86
2022/09/13 12:07:09;;;;;;;;;;;;;;;20.82;100.00;97729.09;1702565;84;26297;-86
2022/09/13 12:09:36;;;;;;;;;;;;;;;20.79;100.00;97729.45;1704338;83;24435;-87
2022/09/13 12:12:16;;;;;;;;;;;;;;;20.75;100.00;97725.53;1701040;84;20206;-87
2022/09/13 12:14:57;;;;;;;;;;;;;;;20.75;100.00;97720.21;1701320;84;25001;-88
2022/09/13 12:17:25;;;;;;;;;;;;;;;20.75;100.00;97721.55;1674205;85;22001;-87
2022/09/13 12:19:53;;;;;;;;;;;;;;;20.75;100.00;97727.69;1674365;85;25995;-87
2022/09/13 12:22:21;;;;;;;;;;;;;;;20.80;100.00;97728.45;1672575;85;24272;-87
2022/09/13 12:24:49;;;;;;;;;;;;;;;20.88;100.00;97729.67;1669788;85;20274;-87
2022/09/13 12:27:26;;;;;;;;;;;;;;;20.91;100.00;97721.30;1671866;83;25985;-87
2022/09/13 12:29:54;;;;;;;;;;;;;;;20.92;100.00;97719.47;1687583;82;22056;-86
2022/09/13 12:32:23;;;;;;;;;;;;;;;20.89;100.00;97720.69;1706073;82;26634;-86
2022/09/13 12:34:51;;;;;;;;;;;;;;;20.87;100.00;97712.06;1705026;84;24506;-87
2022/09/13 12:37:28;;;;;;;;;;;;;;;20.84;100.00;97700.45;1702681;84;20278;-87
2022/09/13 12:39:59;;;;;;;;;;;;;;;20.82;100.00;97698.51;1703959;84;25286;-86
2022/09/13 12:42:45;;;;;;;;;;;;;;;20.81;100.00;97696.86;1702529;82;22000;-86
2022/09/13 12:45:19;;;;;;;;;;;;;;;20.81;100.00;97692.36;1705130;82;26218;-87
2022/09/13 12:47:49;;;;;;;;;;;;;;;20.75;100.00;97687.80;1682388;83;24696;-86
2022/09/13 12:50:21;;;;;;;;;;;;;;;20.72;100.00;97676.73;1707599;83;20254;-86
2022/09/13 12:53:07;;;;;;;;;;;;;;;20.68;100.00;97670.12;1671455;83;24987;-86
2022/09/13 12:55:52;;;;;;;;;;;;;;;20.65;100.00;97681.14;1690107;82;21995;-86